sensor_id;sensor_type;location;lat;lon;timestamp;P1;durP1;ratioP1;P2;durP2;ratioP2
15996;SDS011;8103;51.340;12.326;2023-12-20T00:01:07;4.95;;;4.20;;
15996;SDS011;8103;51.340;12.326;2023-12-20T00:03:34;5.15;;;4.47;;
15996;SDS011;8103;51.340;12.326;2023-12-20T00:06:06;6.57;;;5.35;;
15996;SDS011;8103;51.340;12.326;2023-12-20T00:08:32;6.03;;;4.53;;
15996;SDS011;8103;51.340;12.326;2023-12-20T00:10:59;5.72;;;3.97;;
15996;SDS011;8103;51.340;12.326;2023-12-20T00:13:26;4.55;;;4.00;;
15996;SDS011;8103;51.340;12.326;2023-12-20T00:15:52;4.45;;;3.80;;
15996;SDS011;8103;51.340;12.326;2023-12-20T00:18:19;6.35;;;3.72;;
15996;SDS011;8103;51.340;12.326;2023-12-20T00:20:46;4.53;;;3.50;;
15996;SDS011;8103;51.340;12.326;2023-12-20T00:23:12;4.55;;;4.15;;
15996;SDS011;8103;51.340;12.326;2023-12-20T00:25:39;3.63;;;3.25;;
15996;SDS011;8103;51.340;12.326;2023-12-20T00:28:06;3.97;;;3.42;;
15996;SDS011;8103;51.340;12.326;2023-12-20T00:30:32;4.05;;;3.53;;
15996;SDS011;8103;51.340;12.326;2023-12-20T00:32:59;6.60;;;3.13;;
15996;SDS011;8103;51.340;12.326;2023-12-20T00:35:26;4.30;;;3.90;;
15996;SDS011;8103;51.340;12.326;2023-12-20T00:37:53;3.95;;;3.40;;
15996;SDS011;8103;51.340;12.326;2023-12-20T00:40:19;3.20;;;2.90;;
15996;SDS011;8103;51.340;12.326;2023-12-20T00:42:47;3.78;;;2.92;;
15996;SDS011;8103;51.340;12.326;2023-12-20T00:45:13;2.70;;;2.47;;
15996;SDS011;8103;51.340;12.326;2023-12-20T00:47:41;4.43;;;3.25;;
15996;SDS011;8103;51.340;12.326;2023-12-20T00:50:12;2.80;;;2.55;;
15996;SDS011;8103;51.340;12.326;2023-12-20T00:52:39;3.28;;;2.97;;
15996;SDS011;8103;51.340;12.326;2023-12-20T00:55:05;2.65;;;2.42;;
15996;SDS011;8103;51.340;12.326;2023-12-20T00:57:32;3.75;;;2.88;;
15996;SDS011;8103;51.340;12.326;2023-12-20T00:59:59;4.07;;;3.03;;
15996;SDS011;8103;51.340;12.326;2023-12-20T01:02:26;3.13;;;2.72;;
15996;SDS011;8103;51.340;12.326;2023-12-20T01:04:53;2.85;;;2.50;;
15996;SDS011;8103;51.340;12.326;2023-12-20T01:07:20;2.65;;;2.45;;
15996;SDS011;8103;51.340;12.326;2023-12-20T01:09:47;2.88;;;2.28;;
15996;SDS011;8103;51.340;12.326;2023-12-20T01:12:13;2.30;;;2.00;;
15996;SDS011;8103;51.340;12.326;2023-12-20T01:14:40;2.60;;;2.20;;
15996;SDS011;8103;51.340;12.326;2023-12-20T01:17:07;5.63;;;2.40;;
15996;SDS011;8103;51.340;12.326;2023-12-20T01:19:34;2.88;;;2.35;;
15996;SDS011;8103;51.340;12.326;2023-12-20T01:22:01;2.55;;;1.98;;
15996;SDS011;8103;51.340;12.326;2023-12-20T01:24:27;2.10;;;1.90;;
15996;SDS011;8103;51.340;12.326;2023-12-20T01:26:54;2.47;;;2.28;;
15996;SDS011;8103;51.340;12.326;2023-12-20T01:29:21;2.00;;;1.65;;
15996;SDS011;8103;51.340;12.326;2023-12-20T01:31:48;2.47;;;2.28;;
15996;SDS011;8103;51.340;12.326;2023-12-20T01:34:14;2.53;;;2.33;;
15996;SDS011;8103;51.340;12.326;2023-12-20T01:36:42;2.60;;;2.20;;
15996;SDS011;8103;51.340;12.326;2023-12-20T01:39:08;2.25;;;2.05;;
15996;SDS011;8103;51.340;12.326;2023-12-20T01:41:41;3.25;;;1.67;;
15996;SDS011;8103;51.340;12.326;2023-12-20T01:44:08;2.10;;;1.80;;
15996;SDS011;8103;51.340;12.326;2023-12-20T01:46:34;1.95;;;1.77;;
15996;SDS011;8103;51.340;12.326;2023-12-20T01:49:01;1.90;;;1.35;;
15996;SDS011;8103;51.340;12.326;2023-12-20T01:51:28;2.00;;;1.63;;
15996;SDS011;8103;51.340;12.326;2023-12-20T01:53:56;3.53;;;2.10;;
15996;SDS011;8103;51.340;12.326;2023-12-20T01:56:24;3.17;;;1.70;;
15996;SDS011;8103;51.340;12.326;2023-12-20T01:58:51;2.88;;;2.10;;
15996;SDS011;8103;51.340;12.326;2023-12-20T02:01:18;1.60;;;1.50;;
15996;SDS011;8103;51.340;12.326;2023-12-20T02:03:45;1.77;;;1.52;;
15996;SDS011;8103;51.340;12.326;2023-12-20T02:06:12;2.15;;;1.67;;
15996;SDS011;8103;51.340;12.326;2023-12-20T02:08:39;2.13;;;1.92;;
15996;SDS011;8103;51.340;12.326;2023-12-20T02:11:06;3.30;;;1.60;;
15996;SDS011;8103;51.340;12.326;2023-12-20T02:13:34;2.25;;;1.77;;
15996;SDS011;8103;51.340;12.326;2023-12-20T02:16:00;2.20;;;1.80;;
15996;SDS011;8103;51.340;12.326;2023-12-20T02:18:27;2.00;;;1.55;;
15996;SDS011;8103;51.340;12.326;2023-12-20T02:20:54;1.67;;;1.38;;
15996;SDS011;8103;51.340;12.326;2023-12-20T02:23:22;1.95;;;1.77;;
15996;SDS011;8103;51.340;12.326;2023-12-20T02:25:48;13.25;;;9.35;;
15996;SDS011;8103;51.340;12.326;2023-12-20T02:28:15;3.53;;;2.53;;
15996;SDS011;8103;51.340;12.326;2023-12-20T02:30:42;1.83;;;1.70;;
15996;SDS011;8103;51.340;12.326;2023-12-20T02:33:10;1.60;;;1.50;;
15996;SDS011;8103;51.340;12.326;2023-12-20T02:35:39;2.45;;;2.00;;
15996;SDS011;8103;51.340;12.326;2023-12-20T02:38:06;1.80;;;1.60;;
15996;SDS011;8103;51.340;12.326;2023-12-20T02:40:32;1.75;;;1.50;;
15996;SDS011;8103;51.340;12.326;2023-12-20T02:42:59;2.42;;;1.83;;
15996;SDS011;8103;51.340;12.326;2023-12-20T02:45:26;2.03;;;1.80;;
15996;SDS011;8103;51.340;12.326;2023-12-20T02:47:53;3.10;;;2.42;;
15996;SDS011;8103;51.340;12.326;2023-12-20T02:50:20;3.95;;;2.88;;
15996;SDS011;8103;51.340;12.326;2023-12-20T02:52:46;2.25;;;1.80;;
15996;SDS011;8103;51.340;12.326;2023-12-20T02:55:13;2.20;;;2.00;;
15996;SDS011;8103;51.340;12.326;2023-12-20T02:57:40;2.25;;;1.80;;
15996;SDS011;8103;51.340;12.326;2023-12-20T03:00:09;2.00;;;1.83;;
15996;SDS011;8103;51.340;12.326;2023-12-20T03:02:36;2.13;;;1.90;;
15996;SDS011;8103;51.340;12.326;2023-12-20T03:05:03;2.25;;;1.95;;
15996;SDS011;8103;51.340;12.326;2023-12-20T03:07:30;2.35;;;1.73;;
15996;SDS011;8103;51.340;12.326;2023-12-20T03:09:57;1.85;;;1.70;;
15996;SDS011;8103;51.340;12.326;2023-12-20T03:12:31;2.00;;;1.77;;
15996;SDS011;8103;51.340;12.326;2023-12-20T03:14:57;2.67;;;2.20;;
15996;SDS011;8103;51.340;12.326;2023-12-20T03:17:24;2.63;;;1.90;;
15996;SDS011;8103;51.340;12.326;2023-12-20T03:19:51;2.88;;;2.10;;
15996;SDS011;8103;51.340;12.326;2023-12-20T03:22:17;2.30;;;2.10;;
15996;SDS011;8103;51.340;12.326;2023-12-20T03:24:44;1.88;;;1.63;;
15996;SDS011;8103;51.340;12.326;2023-12-20T03:27:11;3.45;;;2.80;;
15996;SDS011;8103;51.340;12.326;2023-12-20T03:29:37;3.15;;;2.78;;
15996;SDS011;8103;51.340;12.326;2023-12-20T03:32:04;2.63;;;1.90;;
15996;SDS011;8103;51.340;12.326;2023-12-20T03:34:31;2.10;;;1.90;;
15996;SDS011;8103;51.340;12.326;2023-12-20T03:36:57;2.13;;;1.92;;
15996;SDS011;8103;51.340;12.326;2023-12-20T03:39:24;2.08;;;1.63;;
15996;SDS011;8103;51.340;12.326;2023-12-20T03:41:51;3.25;;;2.45;;
15996;SDS011;8103;51.340;12.326;2023-12-20T03:44:17;2.60;;;2.22;;
15996;SDS011;8103;51.340;12.326;2023-12-20T03:46:44;4.43;;;2.08;;
15996;SDS011;8103;51.340;12.326;2023-12-20T03:49:11;2.40;;;1.90;;
15996;SDS011;8103;51.340;12.326;2023-12-20T03:51:38;2.65;;;1.98;;
15996;SDS011;8103;51.340;12.326;2023-12-20T03:54:05;2.40;;;2.20;;
15996;SDS011;8103;51.340;12.326;2023-12-20T03:56:31;2.15;;;1.73;;
15996;SDS011;8103;51.340;12.326;2023-12-20T03:58:58;3.05;;;2.22;;
15996;SDS011;8103;51.340;12.326;2023-12-20T04:01:25;4.80;;;2.33;;
15996;SDS011;8103;51.340;12.326;2023-12-20T04:03:52;2.30;;;1.88;;
15996;SDS011;8103;51.340;12.326;2023-12-20T04:06:18;2.78;;;2.08;;
15996;SDS011;8103;51.340;12.326;2023-12-20T04:08:45;2.38;;;2.15;;
15996;SDS011;8103;51.340;12.326;2023-12-20T04:11:12;3.22;;;2.50;;
15996;SDS011;8103;51.340;12.326;2023-12-20T04:13:38;2.85;;;2.13;;
15996;SDS011;8103;51.340;12.326;2023-12-20T04:16:05;2.33;;;2.13;;
15996;SDS011;8103;51.340;12.326;2023-12-20T04:18:32;2.60;;;2.40;;
15996;SDS011;8103;51.340;12.326;2023-12-20T04:20:59;3.35;;;2.97;;
15996;SDS011;8103;51.340;12.326;2023-12-20T04:23:25;3.47;;;2.78;;
15996;SDS011;8103;51.340;12.326;2023-12-20T04:25:52;2.83;;;2.63;;
15996;SDS011;8103;51.340;12.326;2023-12-20T04:28:19;3.75;;;2.50;;
15996;SDS011;8103;51.340;12.326;2023-12-20T04:30:46;5.43;;;4.10;;
15996;SDS011;8103;51.340;12.326;2023-12-20T04:33:13;3.95;;;3.42;;
15996;SDS011;8103;51.340;12.326;2023-12-20T04:35:39;4.45;;;2.90;;
15996;SDS011;8103;51.340;12.326;2023-12-20T04:38:07;3.45;;;3.15;;
15996;SDS011;8103;51.340;12.326;2023-12-20T04:40:33;3.83;;;2.83;;
15996;SDS011;8103;51.340;12.326;2023-12-20T04:43:00;3.38;;;2.75;;
15996;SDS011;8103;51.340;12.326;2023-12-20T04:45:27;3.30;;;3.00;;
15996;SDS011;8103;51.340;12.326;2023-12-20T04:47:54;2.70;;;2.50;;
15996;SDS011;8103;51.340;12.326;2023-12-20T04:50:21;2.75;;;2.22;;
15996;SDS011;8103;51.340;12.326;2023-12-20T04:52:48;2.95;;;2.33;;
15996;SDS011;8103;51.340;12.326;2023-12-20T04:55:15;2.95;;;2.65;;
15996;SDS011;8103;51.340;12.326;2023-12-20T04:57:41;3.15;;;2.50;;
15996;SDS011;8103;51.340;12.326;2023-12-20T05:00:09;3.90;;;2.42;;
15996;SDS011;8103;51.340;12.326;2023-12-20T05:02:36;4.80;;;3.35;;
15996;SDS011;8103;51.340;12.326;2023-12-20T05:05:03;3.72;;;3.33;;
15996;SDS011;8103;51.340;12.326;2023-12-20T05:07:30;3.85;;;3.53;;
15996;SDS011;8103;51.340;12.326;2023-12-20T05:09:58;7.57;;;4.30;;
15996;SDS011;8103;51.340;12.326;2023-12-20T05:12:25;5.78;;;4.47;;
15996;SDS011;8103;51.340;12.326;2023-12-20T05:14:52;6.43;;;4.85;;
15996;SDS011;8103;51.340;12.326;2023-12-20T05:17:19;6.28;;;5.68;;
15996;SDS011;8103;51.340;12.326;2023-12-20T05:19:46;6.30;;;5.50;;
15996;SDS011;8103;51.340;12.326;2023-12-20T05:22:13;7.40;;;5.90;;
15996;SDS011;8103;51.340;12.326;2023-12-20T05:24:40;7.50;;;6.68;;
15996;SDS011;8103;51.340;12.326;2023-12-20T05:27:06;6.95;;;6.05;;
15996;SDS011;8103;51.340;12.326;2023-12-20T05:29:33;7.50;;;6.43;;
15996;SDS011;8103;51.340;12.326;2023-12-20T05:32:00;8.23;;;6.47;;
15996;SDS011;8103;51.340;12.326;2023-12-20T05:34:27;7.03;;;5.95;;
15996;SDS011;8103;51.340;12.326;2023-12-20T05:36:53;8.20;;;6.35;;
15996;SDS011;8103;51.340;12.326;2023-12-20T05:39:20;8.07;;;6.07;;
15996;SDS011;8103;51.340;12.326;2023-12-20T05:41:47;7.03;;;6.00;;
15996;SDS011;8103;51.340;12.326;2023-12-20T05:44:14;6.88;;;5.97;;
15996;SDS011;8103;51.340;12.326;2023-12-20T05:46:40;7.03;;;5.82;;
15996;SDS011;8103;51.340;12.326;2023-12-20T05:49:07;7.05;;;5.15;;
15996;SDS011;8103;51.340;12.326;2023-12-20T05:51:34;6.82;;;5.13;;
15996;SDS011;8103;51.340;12.326;2023-12-20T05:54:01;5.78;;;4.97;;
15996;SDS011;8103;51.340;12.326;2023-12-20T05:56:27;5.35;;;4.55;;
15996;SDS011;8103;51.340;12.326;2023-12-20T05:58:54;5.43;;;4.65;;
15996;SDS011;8103;51.340;12.326;2023-12-20T06:01:21;6.13;;;4.85;;
15996;SDS011;8103;51.340;12.326;2023-12-20T06:03:47;6.63;;;5.35;;
15996;SDS011;8103;51.340;12.326;2023-12-20T06:06:14;5.13;;;4.63;;
15996;SDS011;8103;51.340;12.326;2023-12-20T06:08:41;6.45;;;4.72;;
15996;SDS011;8103;51.340;12.326;2023-12-20T06:11:09;7.05;;;5.40;;
15996;SDS011;8103;51.340;12.326;2023-12-20T06:13:36;6.20;;;5.60;;
15996;SDS011;8103;51.340;12.326;2023-12-20T06:16:05;9.52;;;6.80;;
15996;SDS011;8103;51.340;12.326;2023-12-20T06:18:33;10.77;;;5.90;;
15996;SDS011;8103;51.340;12.326;2023-12-20T06:21:00;6.47;;;5.35;;
15996;SDS011;8103;51.340;12.326;2023-12-20T06:23:28;5.82;;;5.22;;
15996;SDS011;8103;51.340;12.326;2023-12-20T06:25:55;5.85;;;4.15;;
15996;SDS011;8103;51.340;12.326;2023-12-20T06:28:23;4.97;;;4.03;;
15996;SDS011;8103;51.340;12.326;2023-12-20T06:30:49;4.70;;;4.03;;
15996;SDS011;8103;51.340;12.326;2023-12-20T06:33:18;5.60;;;3.80;;
15996;SDS011;8103;51.340;12.326;2023-12-20T06:35:46;4.10;;;3.40;;
15996;SDS011;8103;51.340;12.326;2023-12-20T06:38:13;6.65;;;3.88;;
15996;SDS011;8103;51.340;12.326;2023-12-20T06:40:40;3.72;;;2.88;;
15996;SDS011;8103;51.340;12.326;2023-12-20T06:43:08;4.43;;;3.00;;
15996;SDS011;8103;51.340;12.326;2023-12-20T06:45:37;4.63;;;3.13;;
15996;SDS011;8103;51.340;12.326;2023-12-20T06:48:04;3.65;;;2.80;;
15996;SDS011;8103;51.340;12.326;2023-12-20T06:50:31;3.55;;;3.13;;
15996;SDS011;8103;51.340;12.326;2023-12-20T06:52:58;3.22;;;2.63;;
15996;SDS011;8103;51.340;12.326;2023-12-20T06:55:25;3.95;;;3.00;;
15996;SDS011;8103;51.340;12.326;2023-12-20T06:57:51;3.50;;;2.75;;
15996;SDS011;8103;51.340;12.326;2023-12-20T07:00:18;3.53;;;2.58;;
15996;SDS011;8103;51.340;12.326;2023-12-20T07:02:46;3.28;;;2.35;;
15996;SDS011;8103;51.340;12.326;2023-12-20T07:05:15;3.53;;;2.13;;
15996;SDS011;8103;51.340;12.326;2023-12-20T07:07:43;2.85;;;1.80;;
15996;SDS011;8103;51.340;12.326;2023-12-20T07:10:10;2.42;;;2.03;;
15996;SDS011;8103;51.340;12.326;2023-12-20T07:12:36;3.55;;;2.58;;
15996;SDS011;8103;51.340;12.326;2023-12-20T07:15:03;2.63;;;1.98;;
15996;SDS011;8103;51.340;12.326;2023-12-20T07:17:32;3.08;;;2.08;;
15996;SDS011;8103;51.340;12.326;2023-12-20T07:19:59;3.60;;;1.80;;
15996;SDS011;8103;51.340;12.326;2023-12-20T07:22:30;2.55;;;1.60;;
15996;SDS011;8103;51.340;12.326;2023-12-20T07:25:00;4.72;;;2.20;;
15996;SDS011;8103;51.340;12.326;2023-12-20T07:27:27;2.53;;;1.67;;
15996;SDS011;8103;51.340;12.326;2023-12-20T07:29:54;2.30;;;1.52;;
15996;SDS011;8103;51.340;12.326;2023-12-20T07:32:20;2.55;;;1.65;;
15996;SDS011;8103;51.340;12.326;2023-12-20T07:34:47;7.93;;;3.90;;
15996;SDS011;8103;51.340;12.326;2023-12-20T07:37:14;5.07;;;3.03;;
15996;SDS011;8103;51.340;12.326;2023-12-20T07:39:41;5.72;;;2.65;;
15996;SDS011;8103;51.340;12.326;2023-12-20T07:42:08;7.03;;;2.35;;
15996;SDS011;8103;51.340;12.326;2023-12-20T07:48:23;2.83;;;1.85;;
15996;SDS011;8103;51.340;12.326;2023-12-20T07:50:49;3.20;;;2.50;;
15996;SDS011;8103;51.340;12.326;2023-12-20T07:53:16;4.40;;;1.30;;
15996;SDS011;8103;51.340;12.326;2023-12-20T07:55:43;3.08;;;2.38;;
15996;SDS011;8103;51.340;12.326;2023-12-20T07:58:10;2.50;;;1.52;;
15996;SDS011;8103;51.340;12.326;2023-12-20T08:00:36;5.13;;;1.70;;
15996;SDS011;8103;51.340;12.326;2023-12-20T08:03:04;2.90;;;1.90;;
15996;SDS011;8103;51.340;12.326;2023-12-20T08:05:30;4.20;;;1.77;;
15996;SDS011;8103;51.340;12.326;2023-12-20T08:07:57;4.00;;;2.17;;
15996;SDS011;8103;51.340;12.326;2023-12-20T08:10:24;2.50;;;1.45;;
15996;SDS011;8103;51.340;12.326;2023-12-20T08:12:51;4.10;;;1.30;;
15996;SDS011;8103;51.340;12.326;2023-12-20T08:15:18;4.70;;;1.15;;
15996;SDS011;8103;51.340;12.326;2023-12-20T08:17:45;3.67;;;1.35;;
15996;SDS011;8103;51.340;12.326;2023-12-20T08:20:12;2.55;;;1.40;;
15996;SDS011;8103;51.340;12.326;2023-12-20T08:22:42;6.72;;;1.67;;
15996;SDS011;8103;51.340;12.326;2023-12-20T08:25:09;3.55;;;1.45;;
15996;SDS011;8103;51.340;12.326;2023-12-20T08:27:39;3.15;;;1.05;;
15996;SDS011;8103;51.340;12.326;2023-12-20T08:30:08;5.50;;;1.92;;
15996;SDS011;8103;51.340;12.326;2023-12-20T08:32:35;5.30;;;1.45;;
15996;SDS011;8103;51.340;12.326;2023-12-20T08:35:02;2.90;;;1.15;;
15996;SDS011;8103;51.340;12.326;2023-12-20T08:37:29;4.32;;;1.70;;
15996;SDS011;8103;51.340;12.326;2023-12-20T08:39:56;3.78;;;1.50;;
15996;SDS011;8103;51.340;12.326;2023-12-20T08:42:23;2.33;;;1.13;;
15996;SDS011;8103;51.340;12.326;2023-12-20T08:44:50;2.10;;;1.25;;
15996;SDS011;8103;51.340;12.326;2023-12-20T08:47:17;1.55;;;1.10;;
15996;SDS011;8103;51.340;12.326;2023-12-20T08:49:46;3.00;;;1.42;;
15996;SDS011;8103;51.340;12.326;2023-12-20T08:52:13;5.90;;;1.30;;
15996;SDS011;8103;51.340;12.326;2023-12-20T08:54:39;3.80;;;1.40;;
15996;SDS011;8103;51.340;12.326;2023-12-20T08:57:08;3.95;;;1.73;;
15996;SDS011;8103;51.340;12.326;2023-12-20T08:59:35;5.63;;;2.13;;
15996;SDS011;8103;51.340;12.326;2023-12-20T09:02:01;8.55;;;2.17;;
15996;SDS011;8103;51.340;12.326;2023-12-20T09:04:28;3.45;;;1.85;;
15996;SDS011;8103;51.340;12.326;2023-12-20T09:06:55;5.93;;;1.98;;
15996;SDS011;8103;51.340;12.326;2023-12-20T09:09:22;5.43;;;2.10;;
15996;SDS011;8103;51.340;12.326;2023-12-20T09:11:49;2.00;;;1.20;;
15996;SDS011;8103;51.340;12.326;2023-12-20T09:14:17;1.88;;;1.63;;
15996;SDS011;8103;51.340;12.326;2023-12-20T09:16:44;4.88;;;1.75;;
15996;SDS011;8103;51.340;12.326;2023-12-20T09:19:11;4.65;;;1.58;;
15996;SDS011;8103;51.340;12.326;2023-12-20T09:21:38;4.47;;;1.17;;
15996;SDS011;8103;51.340;12.326;2023-12-20T09:24:05;3.25;;;1.45;;
15996;SDS011;8103;51.340;12.326;2023-12-20T09:26:31;4.32;;;1.52;;
15996;SDS011;8103;51.340;12.326;2023-12-20T09:28:58;4.07;;;1.40;;
15996;SDS011;8103;51.340;12.326;2023-12-20T09:31:25;4.22;;;1.50;;
15996;SDS011;8103;51.340;12.326;2023-12-20T09:33:52;2.60;;;1.42;;
15996;SDS011;8103;51.340;12.326;2023-12-20T09:36:19;3.17;;;1.88;;
15996;SDS011;8103;51.340;12.326;2023-12-20T09:38:45;2.70;;;1.58;;
15996;SDS011;8103;51.340;12.326;2023-12-20T09:41:12;2.13;;;1.20;;
15996;SDS011;8103;51.340;12.326;2023-12-20T09:43:39;3.13;;;1.30;;
15996;SDS011;8103;51.340;12.326;2023-12-20T09:46:06;2.53;;;1.38;;
15996;SDS011;8103;51.340;12.326;2023-12-20T09:48:34;1.65;;;1.30;;
15996;SDS011;8103;51.340;12.326;2023-12-20T09:51:03;1.67;;;1.20;;
15996;SDS011;8103;51.340;12.326;2023-12-20T09:53:30;3.47;;;1.50;;
15996;SDS011;8103;51.340;12.326;2023-12-20T09:55:58;2.38;;;1.50;;
15996;SDS011;8103;51.340;12.326;2023-12-20T09:58:26;3.65;;;2.03;;
15996;SDS011;8103;51.340;12.326;2023-12-20T10:00:53;2.75;;;1.65;;
15996;SDS011;8103;51.340;12.326;2023-12-20T10:03:23;19.25;;;4.60;;
15996;SDS011;8103;51.340;12.326;2023-12-20T10:05:52;3.42;;;1.60;;
15996;SDS011;8103;51.340;12.326;2023-12-20T10:08:22;2.42;;;1.90;;
15996;SDS011;8103;51.340;12.326;2023-12-20T10:10:50;5.70;;;1.85;;
15996;SDS011;8103;51.340;12.326;2023-12-20T10:13:17;15.45;;;3.85;;
15996;SDS011;8103;51.340;12.326;2023-12-20T10:15:46;5.68;;;1.95;;
15996;SDS011;8103;51.340;12.326;2023-12-20T10:18:13;6.65;;;1.77;;
15996;SDS011;8103;51.340;12.326;2023-12-20T10:20:40;5.05;;;1.85;;
15996;SDS011;8103;51.340;12.326;2023-12-20T10:23:08;1.90;;;1.52;;
15996;SDS011;8103;51.340;12.326;2023-12-20T10:25:35;2.97;;;2.30;;
15996;SDS011;8103;51.340;12.326;2023-12-20T10:28:09;3.58;;;1.67;;
15996;SDS011;8103;51.340;12.326;2023-12-20T10:30:41;5.10;;;2.47;;
15996;SDS011;8103;51.340;12.326;2023-12-20T10:33:09;5.72;;;1.83;;
15996;SDS011;8103;51.340;12.326;2023-12-20T10:35:37;2.55;;;1.52;;
15996;SDS011;8103;51.340;12.326;2023-12-20T10:41:53;3.00;;;1.80;;
15996;SDS011;8103;51.340;12.326;2023-12-20T10:44:20;3.70;;;1.67;;
15996;SDS011;8103;51.340;12.326;2023-12-20T10:46:48;4.57;;;1.92;;
15996;SDS011;8103;51.340;12.326;2023-12-20T10:49:17;4.70;;;1.70;;
15996;SDS011;8103;51.340;12.326;2023-12-20T10:51:45;3.08;;;1.70;;
15996;SDS011;8103;51.340;12.326;2023-12-20T10:54:13;3.42;;;1.55;;
15996;SDS011;8103;51.340;12.326;2023-12-20T10:56:40;4.03;;;1.75;;
15996;SDS011;8103;51.340;12.326;2023-12-20T10:59:07;4.28;;;1.48;;
15996;SDS011;8103;51.340;12.326;2023-12-20T11:01:37;3.67;;;1.52;;
15996;SDS011;8103;51.340;12.326;2023-12-20T11:04:06;3.80;;;1.45;;
15996;SDS011;8103;51.340;12.326;2023-12-20T11:09:25;5.25;;;1.48;;
15996;SDS011;8103;51.340;12.326;2023-12-20T11:12:02;3.97;;;1.52;;
15996;SDS011;8103;51.340;12.326;2023-12-20T11:14:48;5.07;;;1.30;;
15996;SDS011;8103;51.340;12.326;2023-12-20T11:17:17;9.20;;;2.00;;
15996;SDS011;8103;51.340;12.326;2023-12-20T11:22:24;4.35;;;1.35;;
15996;SDS011;8103;51.340;12.326;2023-12-20T11:24:52;10.48;;;2.05;;
15996;SDS011;8103;51.340;12.326;2023-12-20T11:27:19;7.03;;;1.73;;
15996;SDS011;8103;51.340;12.326;2023-12-20T11:29:52;4.00;;;1.33;;
15996;SDS011;8103;51.340;12.326;2023-12-20T11:34:56;3.33;;;2.45;;
15996;SDS011;8103;51.340;12.326;2023-12-20T11:37:28;5.18;;;1.63;;
15996;SDS011;8103;51.340;12.326;2023-12-20T11:40:04;6.75;;;1.60;;
15996;SDS011;8103;51.340;12.326;2023-12-20T11:42:37;7.93;;;2.08;;
15996;SDS011;8103;51.340;12.326;2023-12-20T11:45:08;3.53;;;1.42;;
15996;SDS011;8103;51.340;12.326;2023-12-20T11:47:48;4.32;;;1.83;;
15996;SDS011;8103;51.340;12.326;2023-12-20T11:50:20;3.83;;;1.67;;
15996;SDS011;8103;51.340;12.326;2023-12-20T11:52:49;5.10;;;1.80;;
15996;SDS011;8103;51.340;12.326;2023-12-20T11:55:16;6.45;;;2.22;;
15996;SDS011;8103;51.340;12.326;2023-12-20T11:57:43;2.35;;;1.58;;
15996;SDS011;8103;51.340;12.326;2023-12-20T12:00:11;6.88;;;1.92;;
15996;SDS011;8103;51.340;12.326;2023-12-20T12:02:39;8.23;;;2.72;;
15996;SDS011;8103;51.340;12.326;2023-12-20T12:05:06;6.22;;;1.95;;
15996;SDS011;8103;51.340;12.326;2023-12-20T12:07:33;3.45;;;1.63;;
15996;SDS011;8103;51.340;12.326;2023-12-20T12:10:01;6.60;;;1.48;;
15996;SDS011;8103;51.340;12.326;2023-12-20T12:12:29;7.38;;;1.63;;
15996;SDS011;8103;51.340;12.326;2023-12-20T12:14:57;4.25;;;1.58;;
15996;SDS011;8103;51.340;12.326;2023-12-20T12:17:24;6.15;;;2.10;;
15996;SDS011;8103;51.340;12.326;2023-12-20T12:19:51;3.63;;;1.48;;
15996;SDS011;8103;51.340;12.326;2023-12-20T12:22:32;4.38;;;1.60;;
15996;SDS011;8103;51.340;12.326;2023-12-20T12:24:59;4.22;;;1.50;;
15996;SDS011;8103;51.340;12.326;2023-12-20T12:27:36;7.03;;;1.60;;
15996;SDS011;8103;51.340;12.326;2023-12-20T12:30:04;2.45;;;1.38;;
15996;SDS011;8103;51.340;12.326;2023-12-20T12:32:36;2.53;;;1.55;;
15996;SDS011;8103;51.340;12.326;2023-12-20T12:35:04;4.35;;;1.75;;
15996;SDS011;8103;51.340;12.326;2023-12-20T12:37:37;3.85;;;1.42;;
15996;SDS011;8103;51.340;12.326;2023-12-20T12:40:06;3.42;;;1.35;;
15996;SDS011;8103;51.340;12.326;2023-12-20T12:42:36;5.82;;;2.15;;
15996;SDS011;8103;51.340;12.326;2023-12-20T12:45:07;2.60;;;1.45;;
15996;SDS011;8103;51.340;12.326;2023-12-20T12:47:34;2.38;;;1.13;;
15996;SDS011;8103;51.340;12.326;2023-12-20T12:50:01;3.65;;;1.13;;
15996;SDS011;8103;51.340;12.326;2023-12-20T12:52:30;5.72;;;1.60;;
15996;SDS011;8103;51.340;12.326;2023-12-20T12:54:57;2.65;;;1.15;;
15996;SDS011;8103;51.340;12.326;2023-12-20T12:57:23;5.80;;;1.83;;
15996;SDS011;8103;51.340;12.326;2023-12-20T12:59:50;5.85;;;1.25;;
15996;SDS011;8103;51.340;12.326;2023-12-20T13:02:17;2.50;;;1.23;;
15996;SDS011;8103;51.340;12.326;2023-12-20T13:04:45;3.83;;;1.25;;
15996;SDS011;8103;51.340;12.326;2023-12-20T13:07:12;3.30;;;1.50;;
15996;SDS011;8103;51.340;12.326;2023-12-20T13:09:39;4.00;;;1.60;;
15996;SDS011;8103;51.340;12.326;2023-12-20T13:12:06;5.90;;;1.60;;
15996;SDS011;8103;51.340;12.326;2023-12-20T13:14:34;3.08;;;1.58;;
15996;SDS011;8103;51.340;12.326;2023-12-20T13:17:03;6.43;;;1.67;;
15996;SDS011;8103;51.340;12.326;2023-12-20T13:19:30;3.65;;;1.67;;
15996;SDS011;8103;51.340;12.326;2023-12-20T13:21:58;4.93;;;1.60;;
15996;SDS011;8103;51.340;12.326;2023-12-20T13:24:25;3.35;;;1.30;;
15996;SDS011;8103;51.340;12.326;2023-12-20T13:26:52;5.32;;;1.67;;
15996;SDS011;8103;51.340;12.326;2023-12-20T13:29:18;4.65;;;1.50;;
15996;SDS011;8103;51.340;12.326;2023-12-20T13:31:45;6.90;;;1.70;;
15996;SDS011;8103;51.340;12.326;2023-12-20T13:34:12;2.30;;;1.40;;
15996;SDS011;8103;51.340;12.326;2023-12-20T13:36:43;5.00;;;1.70;;
15996;SDS011;8103;51.340;12.326;2023-12-20T13:39:14;4.13;;;1.77;;
15996;SDS011;8103;51.340;12.326;2023-12-20T13:41:40;6.03;;;1.20;;
15996;SDS011;8103;51.340;12.326;2023-12-20T13:44:07;3.35;;;1.80;;
15996;SDS011;8103;51.340;12.326;2023-12-20T13:46:34;5.25;;;1.70;;
15996;SDS011;8103;51.340;12.326;2023-12-20T13:49:02;3.10;;;1.45;;
15996;SDS011;8103;51.340;12.326;2023-12-20T13:51:29;3.40;;;1.30;;
15996;SDS011;8103;51.340;12.326;2023-12-20T13:53:56;5.53;;;1.42;;
15996;SDS011;8103;51.340;12.326;2023-12-20T13:56:23;2.83;;;1.20;;
15996;SDS011;8103;51.340;12.326;2023-12-20T13:58:50;2.53;;;1.33;;
15996;SDS011;8103;51.340;12.326;2023-12-20T14:01:17;3.78;;;1.48;;
15996;SDS011;8103;51.340;12.326;2023-12-20T14:03:44;5.03;;;1.40;;
15996;SDS011;8103;51.340;12.326;2023-12-20T14:06:11;3.20;;;1.80;;
15996;SDS011;8103;51.340;12.326;2023-12-20T14:08:38;2.83;;;1.23;;
15996;SDS011;8103;51.340;12.326;2023-12-20T14:11:05;4.90;;;1.50;;
15996;SDS011;8103;51.340;12.326;2023-12-20T14:13:31;2.90;;;1.40;;
15996;SDS011;8103;51.340;12.326;2023-12-20T14:16:00;2.47;;;1.40;;
15996;SDS011;8103;51.340;12.326;2023-12-20T14:18:28;3.55;;;1.15;;
15996;SDS011;8103;51.340;12.326;2023-12-20T14:20:56;2.25;;;0.85;;
15996;SDS011;8103;51.340;12.326;2023-12-20T14:23:23;3.58;;;0.88;;
15996;SDS011;8103;51.340;12.326;2023-12-20T14:25:50;2.38;;;1.20;;
15996;SDS011;8103;51.340;12.326;2023-12-20T14:28:18;2.28;;;1.20;;
15996;SDS011;8103;51.340;12.326;2023-12-20T14:30:45;4.28;;;2.40;;
15996;SDS011;8103;51.340;12.326;2023-12-20T14:33:12;4.43;;;1.58;;
15996;SDS011;8103;51.340;12.326;2023-12-20T14:35:39;6.88;;;1.42;;
15996;SDS011;8103;51.340;12.326;2023-12-20T14:38:10;3.55;;;1.23;;
15996;SDS011;8103;51.340;12.326;2023-12-20T14:40:38;2.33;;;1.60;;
15996;SDS011;8103;51.340;12.326;2023-12-20T14:43:05;4.00;;;1.08;;
15996;SDS011;8103;51.340;12.326;2023-12-20T14:45:34;2.38;;;1.27;;
15996;SDS011;8103;51.340;12.326;2023-12-20T14:48:00;3.58;;;1.33;;
15996;SDS011;8103;51.340;12.326;2023-12-20T14:50:28;2.90;;;1.10;;
15996;SDS011;8103;51.340;12.326;2023-12-20T14:52:55;2.33;;;1.35;;
15996;SDS011;8103;51.340;12.326;2023-12-20T14:55:23;3.75;;;1.15;;
15996;SDS011;8103;51.340;12.326;2023-12-20T14:57:50;2.42;;;0.93;;
15996;SDS011;8103;51.340;12.326;2023-12-20T15:00:17;3.15;;;2.08;;
15996;SDS011;8103;51.340;12.326;2023-12-20T15:02:44;5.35;;;1.20;;
15996;SDS011;8103;51.340;12.326;2023-12-20T15:05:12;1.73;;;1.30;;